sensor_id;sensor_type;location;lat;lon;timestamp;pressure;altitude;pressure_sealevel;temperature;humidity
7050;BME280;22263;52.260;10.548;2022-08-01T00:01:50;100312.44;;;19.64;100.00
7050;BME280;22263;52.260;10.548;2022-08-01T00:04:22;100315.81;;;19.71;100.00
7050;BME280;22263;52.260;10.548;2022-08-01T00:06:54;100311.22;;;19.65;100.00
7050;BME280;22263;52.260;10.548;2022-08-01T00:09:24;100321.44;;;19.71;100.00
7050;BME280;22263;52.260;10.548;2022-08-01T00:11:53;100322.56;;;19.74;100.00
7050;BME280;22263;52.260;10.548;2022-08-01T00:14:25;100309.44;;;19.71;100.00
7050;BME280;22263;52.260;10.548;2022-08-01T00:16:58;100314.94;;;19.74;100.00
7050;BME280;22263;52.260;10.548;2022-08-01T00:19:35;100318.53;;;19.75;100.00
7050;BME280;22263;52.260;10.548;2022-08-01T00:22:04;100318.19;;;19.73;100.00
7050;BME280;22263;52.260;10.548;2022-08-01T00:24:34;100313.91;;;19.68;100.00
7050;BME280;22263;52.260;10.548;2022-08-01T00:27:04;100315.81;;;19.71;100.00
7050;BME280;22263;52.260;10.548;2022-08-01T00:29:33;100312.72;;;19.82;100.00
7050;BME280;22263;52.260;10.548;2022-08-01T00:32:22;100323.63;;;19.80;100.00
7050;BME280;22263;52.260;10.548;2022-08-01T00:34:55;100311.13;;;19.81;100.00
7050;BME280;22263;52.260;10.548;2022-08-01T00:37:24;100311.47;;;19.83;100.00
7050;BME280;22263;52.260;10.548;2022-08-01T00:39:53;100309.81;;;19.85;100.00
7050;BME280;22263;52.260;10.548;2022-08-01T00:42:23;100306.66;;;19.83;100.00
7050;BME280;22263;52.260;10.548;2022-08-01T00:44:52;100300.81;;;19.78;100.00
7050;BME280;22263;52.260;10.548;2022-08-01T00:47:21;100305.97;;;19.79;100.00
7050;BME280;22263;52.260;10.548;2022-08-01T00:49:54;100309.56;;;19.80;100.00
7050;BME280;22263;52.260;10.548;2022-08-01T00:52:23;100307.78;;;19.86;100.00
7050;BME280;22263;52.260;10.548;2022-08-01T00:54:52;100312.63;;;19.85;100.00
7050;BME280;22263;52.260;10.548;2022-08-01T00:57:22;100297.44;;;19.83;100.00
7050;BME280;22263;52.260;10.548;2022-08-01T01:00:13;100298.00;;;19.78;100.00
7050;BME280;22263;52.260;10.548;2022-08-01T01:02:43;100303.06;;;19.83;100.00
7050;BME280;22263;52.260;10.548;2022-08-01T01:05:15;100295.66;;;19.89;100.00
7050;BME280;22263;52.260;10.548;2022-08-01T01:07:50;100299.69;;;19.88;100.00
7050;BME280;22263;52.260;10.548;2022-08-01T01:10:25;100299.81;;;19.84;100.00
7050;BME280;22263;52.260;10.548;2022-08-01T01:13:02;100298.13;;;19.87;100.00
7050;BME280;22263;52.260;10.548;2022-08-01T01:15:37;100298.13;;;19.87;100.00
7050;BME280;22263;52.260;10.548;2022-08-01T01:18:11;100285.66;;;19.88;100.00
7050;BME280;22263;52.260;10.548;2022-08-01T01:20:49;100283.31;;;19.86;100.00
7050;BME280;22263;52.260;10.548;2022-08-01T01:23:44;100287.56;;;19.91;100.00
7050;BME280;22263;52.260;10.548;2022-08-01T01:26:29;100288.81;;;19.90;100.00
7050;BME280;22263;52.260;10.548;2022-08-01T01:29:06;100288.03;;;19.89;100.00
7050;BME280;22263;52.260;10.548;2022-08-01T01:31:43;100291.47;;;19.81;100.00
7050;BME280;22263;52.260;10.548;2022-08-01T01:34:15;100296.53;;;19.86;100.00
7050;BME280;22263;52.260;10.548;2022-08-01T01:36:48;100294.75;;;19.79;100.00
7050;BME280;22263;52.260;10.548;2022-08-01T01:39:18;100300.81;;;19.78;100.00
7050;BME280;22263;52.260;10.548;2022-08-01T01:41:51;100304.94;;;19.73;100.00
7050;BME280;22263;52.260;10.548;2022-08-01T01:44:26;100296.97;;;19.72;100.00
7050;BME280;22263;52.260;10.548;2022-08-01T01:46:56;100301.78;;;19.71;100.00
7050;BME280;22263;52.260;10.548;2022-08-01T01:49:28;100299.78;;;19.72;100.00
7050;BME280;22263;52.260;10.548;2022-08-01T01:52:00;100301.78;;;19.71;100.00
7050;BME280;22263;52.260;10.548;2022-08-01T01:54:33;100305.38;;;19.72;100.00
7050;BME280;22263;52.260;10.548;2022-08-01T01:57:05;100308.91;;;19.76;100.00
7050;BME280;22263;52.260;10.548;2022-08-01T01:59:39;100297.22;;;19.77;100.00
7050;BME280;22263;52.260;10.548;2022-08-01T02:02:10;100300.25;;;19.83;100.00
7050;BME280;22263;52.260;10.548;2022-08-01T02:04:43;100300.59;;;19.85;100.00
7050;BME280;22263;52.260;10.548;2022-08-01T02:07:18;100295.97;;;19.78;100.00
7050;BME280;22263;52.260;10.548;2022-08-01T02:09:50;100299.16;;;19.80;100.00
7050;BME280;22263;52.260;10.548;2022-08-01T02:12:21;100292.75;;;19.80;100.00
7050;BME280;22263;52.260;10.548;2022-08-01T02:14:55;100287.91;;;19.80;100.00
7050;BME280;22263;52.260;10.548;2022-08-01T02:17:26;100297.22;;;19.77;100.00
7050;BME280;22263;52.260;10.548;2022-08-01T02:19:57;100294.28;;;19.81;100.00
7050;BME280;22263;52.260;10.548;2022-08-01T02:22:31;100291.47;;;19.81;100.00
7050;BME280;22263;52.260;10.548;2022-08-01T02:25:11;100299.91;;;19.81;100.00
7050;BME280;22263;52.260;10.548;2022-08-01T02:27:47;100285.41;;;19.70;100.00
7050;BME280;22263;52.260;10.548;2022-08-01T02:30:22;100288.34;;;19.79;100.00
7050;BME280;22263;52.260;10.548;2022-08-01T02:32:58;100291.84;;;19.83;100.00
7050;BME280;22263;52.260;10.548;2022-08-01T02:35:32;100289.59;;;19.78;100.00
7050;BME280;22263;52.260;10.548;2022-08-01T02:38:25;100296.09;;;19.75;100.00
7050;BME280;22263;52.260;10.548;2022-08-01T02:40:57;100278.16;;;19.85;100.00
7050;BME280;22263;52.260;10.548;2022-08-01T02:43:30;100285.31;;;19.73;100.00
7050;BME280;22263;52.260;10.548;2022-08-01T02:46:05;100279.44;;;19.68;100.00
7050;BME280;22263;52.260;10.548;2022-08-01T02:48:38;100289.44;;;19.69;100.00
7050;BME280;22263;52.260;10.548;2022-08-01T02:51:10;100282.81;;;19.63;100.00
7050;BME280;22263;52.260;10.548;2022-08-01T02:53:42;100293.16;;;19.66;100.00
7050;BME280;22263;52.260;10.548;2022-08-01T02:56:13;100294.72;;;19.67;100.00
7050;BME280;22263;52.260;10.548;2022-08-01T02:58:45;100289.81;;;19.71;100.00
7050;BME280;22263;52.260;10.548;2022-08-01T03:01:18;100294.03;;;19.63;100.00
7050;BME280;22263;52.260;10.548;2022-08-01T03:03:52;100308.31;;;19.68;100.00
7050;BME280;22263;52.260;10.548;2022-08-01T03:06:23;100294.03;;;19.63;100.00
7050;BME280;22263;52.260;10.548;2022-08-01T03:08:54;100297.75;;;19.59;100.00
7050;BME280;22263;52.260;10.548;2022-08-01T03:11:25;100297.59;;;19.50;100.00
7050;BME280;22263;52.260;10.548;2022-08-01T03:13:59;100306.13;;;19.47;100.00
7050;BME280;22263;52.260;10.548;2022-08-01T03:16:35;100303.38;;;19.43;100.00
7050;BME280;22263;52.260;10.548;2022-08-01T03:19:08;100307.06;;;19.40;100.00
7050;BME280;22263;52.260;10.548;2022-08-01T03:21:40;100316.19;;;19.44;100.00
7050;BME280;22263;52.260;10.548;2022-08-01T03:24:12;100322.69;;;19.41;100.00
7050;BME280;22263;52.260;10.548;2022-08-01T03:26:43;100318.47;;;19.33;100.00
7050;BME280;22263;52.260;10.548;2022-08-01T03:29:16;100325.78;;;19.31;100.00
7050;BME280;22263;52.260;10.548;2022-08-01T03:31:48;100327.44;;;19.28;100.00
7050;BME280;22263;52.260;10.548;2022-08-01T03:34:18;100331.13;;;19.25;100.00
7050;BME280;22263;52.260;10.548;2022-08-01T03:36:53;100345.25;;;19.22;100.00
7050;BME280;22263;52.260;10.548;2022-08-01T03:39:29;100343.25;;;19.22;100.00
7050;BME280;22263;52.260;10.548;2022-08-01T03:42:03;100341.41;;;19.15;100.00
7050;BME280;22263;52.260;10.548;2022-08-01T03:44:36;100345.09;;;19.12;100.00
7050;BME280;22263;52.260;10.548;2022-08-01T03:47:10;100338.69;;;19.12;100.00
7050;BME280;22263;52.260;10.548;2022-08-01T03:49:42;100348.44;;;19.07;100.00
7050;BME280;22263;52.260;10.548;2022-08-01T03:52:14;100338.19;;;19.01;100.00
7050;BME280;22263;52.260;10.548;2022-08-01T03:54:47;100348.97;;;19.02;100.00
7050;BME280;22263;52.260;10.548;2022-08-01T03:57:19;100341.66;;;19.05;100.00
7050;BME280;22263;52.260;10.548;2022-08-01T04:00:04;100351.06;;;18.98;100.00
7050;BME280;22263;52.260;10.548;2022-08-01T04:02:38;100350.59;;;19.00;100.00
7050;BME280;22263;52.260;10.548;2022-08-01T04:05:08;100354.56;;;19.02;100.00
7050;BME280;22263;52.260;10.548;2022-08-01T04:07:38;100352.88;;;19.05;100.00
7050;BME280;22263;52.260;10.548;2022-08-01T04:10:10;100351.22;;;19.07;100.00
7050;BME280;22263;52.260;10.548;2022-08-01T04:12:40;100359.75;;;19.04;100.00
7050;BME280;22263;52.260;10.548;2022-08-01T04:15:09;100364.47;;;19.07;100.00
7050;BME280;22263;52.260;10.548;2022-08-01T04:17:43;100361.22;;;19.08;100.00
7050;BME280;22263;52.260;10.548;2022-08-01T04:20:13;100362.34;;;19.11;100.00
7050;BME280;22263;52.260;10.548;2022-08-01T04:22:42;100373.81;;;19.16;100.00
7050;BME280;22263;52.260;10.548;2022-08-01T04:25:15;100373.72;;;19.20;100.00
7050;BME280;22263;52.260;10.548;2022-08-01T04:27:48;100372.50;;;19.21;100.00
7050;BME280;22263;52.260;10.548;2022-08-01T04:30:21;100375.72;;;19.36;100.00
7050;BME280;22263;52.260;10.548;2022-08-01T04:32:55;100363.72;;;19.35;100.00
7050;BME280;22263;52.260;10.548;2022-08-01T04:35:27;100373.19;;;19.25;100.00
7050;BME280;22263;52.260;10.548;2022-08-01T04:38:20;100367.63;;;19.38;100.00
7050;BME280;22263;52.260;10.548;2022-08-01T04:40:51;100369.06;;;19.46;100.00
7050;BME280;22263;52.260;10.548;2022-08-01T04:43:21;100367.75;;;19.50;100.00
7050;BME280;22263;52.260;10.548;2022-08-01T04:45:51;100373.81;;;19.62;100.00
7050;BME280;22263;52.260;10.548;2022-08-01T04:48:24;100367.63;;;19.54;100.00
7050;BME280;22263;52.260;10.548;2022-08-01T04:50:55;100372.06;;;19.68;100.00
7050;BME280;22263;52.260;10.548;2022-08-01T04:53:25;100372.59;;;19.63;100.00
7050;BME280;22263;52.260;10.548;2022-08-01T04:55:55;100376.63;;;19.62;100.00
7050;BME280;22263;52.260;10.548;2022-08-01T04:58:24;100381.47;;;19.61;100.00
7050;BME280;22263;52.260;10.548;2022-08-01T05:00:53;100372.03;;;19.55;100.00
7050;BME280;22263;52.260;10.548;2022-08-01T05:03:26;100382.72;;;19.44;100.00
7050;BME280;22263;52.260;10.548;2022-08-01T05:05:55;100383.19;;;19.26;100.00
7050;BME280;22263;52.260;10.548;2022-08-01T05:08:24;100401.38;;;19.34;100.00
7050;BME280;22263;52.260;10.548;2022-08-01T05:10:54;100389.91;;;19.29;100.00
7050;BME280;22263;52.260;10.548;2022-08-01T05:13:23;100398.44;;;19.25;100.00
7050;BME280;22263;52.260;10.548;2022-08-01T05:15:53;100395.53;;;19.29;100.00
7050;BME280;22263;52.260;10.548;2022-08-01T05:18:22;100399.03;;;19.33;100.00
7050;BME280;22263;52.260;10.548;2022-08-01T05:20:56;100397.91;;;19.30;100.00
7050;BME280;22263;52.260;10.548;2022-08-01T05:23:26;100409.97;;;19.43;100.00
7050;BME280;22263;52.260;10.548;2022-08-01T05:26:09;100407.50;;;19.62;100.00
7050;BME280;22263;52.260;10.548;2022-08-01T05:28:41;100408.28;;;19.62;100.00
7050;BME280;22263;52.260;10.548;2022-08-01T05:31:10;100409.81;;;19.50;100.00
7050;BME280;22263;52.260;10.548;2022-08-01T05:33:40;100404.06;;;19.70;100.00
7050;BME280;22263;52.260;10.548;2022-08-01T05:36:12;100403.28;;;19.70;100.00
7050;BME280;22263;52.260;10.548;2022-08-01T05:38:41;100399.56;;;19.73;100.00
7050;BME280;22263;52.260;10.548;2022-08-01T05:41:11;100407.81;;;19.80;100.00
7050;BME280;22263;52.260;10.548;2022-08-01T05:43:40;100404.75;;;19.74;100.00
7050;BME280;22263;52.260;10.548;2022-08-01T05:46:10;100410.00;;;19.72;100.00
7050;BME280;22263;52.260;10.548;2022-08-01T05:48:39;100408.94;;;19.82;100.00
7050;BME280;22263;52.260;10.548;2022-08-01T05:51:08;100403.22;;;19.86;100.00
7050;BME280;22263;52.260;10.548;2022-08-01T05:53:41;100407.72;;;19.96;100.00
7050;BME280;22263;52.260;10.548;2022-08-01T05:56:10;100402.03;;;19.99;100.00
7050;BME280;22263;52.260;10.548;2022-08-01T05:58:39;100399.34;;;20.09;100.00
7050;BME280;22263;52.260;10.548;2022-08-01T06:01:09;100398.88;;;19.97;100.00
7050;BME280;22263;52.260;10.548;2022-08-01T06:03:38;100408.22;;;20.07;100.00
7050;BME280;22263;52.260;10.548;2022-08-01T06:06:08;100411.56;;;20.02;100.00
7050;BME280;22263;52.260;10.548;2022-08-01T06:08:37;100410.47;;;19.99;100.00
7050;BME280;22263;52.260;10.548;2022-08-01T06:11:09;100410.22;;;19.94;100.00
7050;BME280;22263;52.260;10.548;2022-08-01T06:13:39;100419.84;;;19.93;100.00
7050;BME280;22263;52.260;10.548;2022-08-01T06:16:14;100431.44;;;19.95;100.00
7050;BME280;22263;52.260;10.548;2022-08-01T06:18:43;100422.63;;;20.09;100.00
7050;BME280;22263;52.260;10.548;2022-08-01T06:21:13;100412.91;;;19.97;100.00
7050;BME280;22263;52.260;10.548;2022-08-01T06:23:42;100425.84;;;20.08;100.00
7050;BME280;22263;52.260;10.548;2022-08-01T06:26:17;100420.25;;;20.08;100.00
7050;BME280;22263;52.260;10.548;2022-08-01T06:28:46;100428.22;;;20.09;100.00
7050;BME280;22263;52.260;10.548;2022-08-01T06:31:16;100432.81;;;20.32;100.00
7050;BME280;22263;52.260;10.548;2022-08-01T06:33:45;100425.72;;;20.40;100.00
7050;BME280;22263;52.260;10.548;2022-08-01T06:36:14;100425.84;;;20.87;100.00
7050;BME280;22263;52.260;10.548;2022-08-01T06:38:44;100426.41;;;20.82;100.00
7050;BME280;22263;52.260;10.548;2022-08-01T06:41:16;100416.06;;;20.92;100.00
7050;BME280;22263;52.260;10.548;2022-08-01T06:43:45;100417.78;;;21.14;100.00
7050;BME280;22263;52.260;10.548;2022-08-01T06:46:15;100411.75;;;21.25;100.00
7050;BME280;22263;52.260;10.548;2022-08-01T06:48:44;100419.31;;;21.15;100.00
7050;BME280;22263;52.260;10.548;2022-08-01T06:51:13;100420.03;;;21.19;100.00
7050;BME280;22263;52.260;10.548;2022-08-01T06:53:47;100423.72;;;21.04;100.00
7050;BME280;22263;52.260;10.548;2022-08-01T06:56:19;100429.22;;;20.82;100.00
7050;BME280;22263;52.260;10.548;2022-08-01T06:58:48;100432.16;;;20.66;100.00
7050;BME280;22263;52.260;10.548;2022-08-01T07:01:18;100442.50;;;20.69;100.00
7050;BME280;22263;52.260;10.548;2022-08-01T07:03:47;100434.81;;;20.31;100.00
7050;BME280;22263;52.260;10.548;2022-08-01T07:06:21;100447.41;;;20.39;100.00
7050;BME280;22263;52.260;10.548;2022-08-01T07:08:51;100449.25;;;20.17;100.00
7050;BME280;22263;52.260;10.548;2022-08-01T07:11:23;100451.91;;;20.08;100.00
7050;BME280;22263;52.260;10.548;2022-08-01T07:13:53;100467.16;;;19.94;100.00
7050;BME280;22263;52.260;10.548;2022-08-01T07:16:23;100461.22;;;19.76;100.00
7050;BME280;22263;52.260;10.548;2022-08-01T07:18:52;100463.25;;;19.76;100.00
7050;BME280;22263;52.260;10.548;2022-08-01T07:21:22;100462.50;;;19.88;100.00
7050;BME280;22263;52.260;10.548;2022-08-01T07:24:07;100466.75;;;20.09;100.00
7050;BME280;22263;52.260;10.548;2022-08-01T07:26:43;100471.31;;;20.02;100.00
7050;BME280;22263;52.260;10.548;2022-08-01T07:29:19;100466.34;;;19.94;100.00
7050;BME280;22263;52.260;10.548;2022-08-01T07:31:49;100469.09;;;20.10;100.00
7050;BME280;22263;52.260;10.548;2022-08-01T07:34:19;100460.34;;;20.08;100.00
7050;BME280;22263;52.260;10.548;2022-08-01T07:36:49;100472.00;;;20.07;100.00
7050;BME280;22263;52.260;10.548;2022-08-01T07:39:18;100471.69;;;20.05;100.00
7050;BME280;22263;52.260;10.548;2022-08-01T07:41:50;100472.00;;;20.35;100.00
7050;BME280;22263;52.260;10.548;2022-08-01T07:44:33;100463.09;;;20.78;100.00
7050;BME280;22263;52.260;10.548;2022-08-01T07:47:03;100459.59;;;21.12;100.00
7050;BME280;22263;52.260;10.548;2022-08-01T07:49:33;100458.25;;;21.04;100.00
7050;BME280;22263;52.260;10.548;2022-08-01T07:52:06;100465.88;;;20.91;100.00
7050;BME280;22263;52.260;10.548;2022-08-01T07:54:36;100458.47;;;21.22;100.00
7050;BME280;22263;52.260;10.548;2022-08-01T07:57:07;100457.66;;;21.35;100.00
7050;BME280;22263;52.260;10.548;2022-08-01T07:59:37;100461.69;;;21.46;100.00
7050;BME280;22263;52.260;10.548;2022-08-01T08:02:06;100471.03;;;21.90;100.00
7050;BME280;22263;52.260;10.548;2022-08-01T08:04:36;100456.28;;;21.86;100.00
7050;BME280;22263;52.260;10.548;2022-08-01T08:07:11;100453.56;;;21.61;100.00
7050;BME280;22263;52.260;10.548;2022-08-01T08:09:40;100454.72;;;21.85;100.00
7050;BME280;22263;52.260;10.548;2022-08-01T08:12:19;100455.09;;;21.74;100.00
7050;BME280;22263;52.260;10.548;2022-08-01T08:14:53;100459.31;;;21.92;100.00
7050;BME280;22263;52.260;10.548;2022-08-01T08:17:25;100457.69;;;21.69;100.00
7050;BME280;22263;52.260;10.548;2022-08-01T08:20:02;100463.47;;;22.00;100.00
7050;BME280;22263;52.260;10.548;2022-08-01T08:22:35;100451.44;;;22.52;100.00
7050;BME280;22263;52.260;10.548;2022-08-01T08:25:06;100454.72;;;22.72;100.00
7050;BME280;22263;52.260;10.548;2022-08-01T08:27:40;100457.28;;;22.57;100.00
7050;BME280;22263;52.260;10.548;2022-08-01T08:30:10;100457.19;;;22.70;100.00
7050;BME280;22263;52.260;10.548;2022-08-01T08:32:39;100453.13;;;22.71;100.00
7050;BME280;22263;52.260;10.548;2022-08-01T08:35:09;100454.84;;;23.09;100.00
7050;BME280;22263;52.260;10.548;2022-08-01T08:37:48;100452.34;;;23.11;100.00
7050;BME280;22263;52.260;10.548;2022-08-01T08:40:23;100459.69;;;23.08;100.00
7050;BME280;22263;52.260;10.548;2022-08-01T08:43:01;100448.41;;;23.84;100.00
7050;BME280;22263;52.260;10.548;2022-08-01T08:45:32;100443.38;;;23.79;100.00
7050;BME280;22263;52.260;10.548;2022-08-01T08:48:22;100448.66;;;24.50;100.00
7050;BME280;22263;52.260;10.548;2022-08-01T08:50:53;100461.13;;;24.25;100.00
7050;BME280;22263;52.260;10.548;2022-08-01T08:53:24;100455.91;;;24.15;100.00
7050;BME280;22263;52.260;10.548;2022-08-01T08:56:00;100467.88;;;23.73;100.00
7050;BME280;22263;52.260;10.548;2022-08-01T08:58:35;100463.00;;;23.92;100.00
7050;BME280;22263;52.260;10.548;2022-08-01T09:01:06;100475.50;;;23.45;100.00
7050;BME280;22263;52.260;10.548;2022-08-01T09:03:36;100474.97;;;23.29;100.00
7050;BME280;22263;52.260;10.548;2022-08-01T09:06:06;100481.59;;;23.35;100.00
7050;BME280;22263;52.260;10.548;2022-08-01T09:08:36;100486.50;;;23.13;100.00
7050;BME280;22263;52.260;10.548;2022-08-01T09:11:06;100478.00;;;22.42;100.00
7050;BME280;22263;52.260;10.548;2022-08-01T09:13:38;100486.41;;;22.33;100.00
7050;BME280;22263;52.260;10.548;2022-08-01T09:16:16;100498.84;;;22.44;100.00
7050;BME280;22263;52.260;10.548;2022-08-01T09:18:46;100497.59;;;22.24;100.00
7050;BME280;22263;52.260;10.548;2022-08-01T09:21:20;100500.41;;;22.24;100.00
7050;BME280;22263;52.260;10.548;2022-08-01T09:23:54;100495.25;;;22.22;100.00
7050;BME280;22263;52.260;10.548;2022-08-01T09:26:29;100510.34;;;21.94;100.00
7050;BME280;22263;52.260;10.548;2022-08-01T09:29:04;100515.25;;;22.02;100.00
7050;BME280;22263;52.260;10.548;2022-08-01T09:31:40;100513.94;;;21.94;100.00
7050;BME280;22263;52.260;10.548;2022-08-01T09:34:14;100520.78;;;22.06;100.00
7050;BME280;22263;52.260;10.548;2022-08-01T09:36:47;100514.66;;;21.73;100.00
7050;BME280;22263;52.260;10.548;2022-08-01T09:39:20;100523.44;;;21.75;100.00
7050;BME280;22263;52.260;10.548;2022-08-01T09:41:52;100532.53;;;21.92;100.00
7050;BME280;22263;52.260;10.548;2022-08-01T09:44:41;100533.38;;;22.14;100.00
7050;BME280;22263;52.260;10.548;2022-08-01T09:47:20;100534.97;;;22.37;100.00
7050;BME280;22263;52.260;10.548;2022-08-01T09:49:53;100524.72;;;22.52;100.00
7050;BME280;22263;52.260;10.548;2022-08-01T09:52:27;100529.84;;;22.66;100.00
7050;BME280;22263;52.260;10.548;2022-08-01T09:55:00;100535.97;;;22.95;100.00
7050;BME280;22263;52.260;10.548;2022-08-01T09:57:30;100535.06;;;23.38;100.00
7050;BME280;22263;52.260;10.548;2022-08-01T10:00:04;100538.47;;;23.73;100.00
7050;BME280;22263;52.260;10.548;2022-08-01T10:02:37;100531.31;;;24.18;100.00
7050;BME280;22263;52.260;10.548;2022-08-01T10:05:08;100517.69;;;25.70;100.00
7050;BME280;22263;52.260;10.548;2022-08-01T10:07:57;100529.25;;;27.02;100.00
7050;BME280;22263;52.260;10.548;2022-08-01T10:10:27;100533.97;;;26.90;100.00
7050;BME280;22263;52.260;10.548;2022-08-01T10:12:59;100529.72;;;26.41;100.00
7050;BME280;22263;52.260;10.548;2022-08-01T10:15:32;100536.19;;;25.56;100.00
7050;BME280;22263;52.260;10.548;2022-08-01T10:18:05;100536.97;;;24.54;100.00
7050;BME280;22263;52.260;10.548;2022-08-01T10:20:51;100536.94;;;24.00;100.00
7050;BME280;22263;52.260;10.548;2022-08-01T10:23:24;100539.75;;;23.81;100.00
7050;BME280;22263;52.260;10.548;2022-08-01T10:26:07;100544.16;;;23.82;100.00
7050;BME280;22263;52.260;10.548;2022-08-01T10:28:38;100551.19;;;23.69;100.00
7050;BME280;22263;52.260;10.548;2022-08-01T10:31:12;100549.16;;;23.78;100.00
7050;BME280;22263;52.260;10.548;2022-08-01T10:33:42;100554.94;;;23.26;100.00
7050;BME280;22263;52.260;10.548;2022-08-01T10:36:19;100551.75;;;23.15;100.00
7050;BME280;22263;52.260;10.548;2022-08-01T10:38:51;100563.22;;;22.89;100.00
7050;BME280;22263;52.260;10.548;2022-08-01T10:41:21;100556.94;;;22.64;100.00
7050;BME280;22263;52.260;10.548;2022-08-01T10:43:53;100556.28;;;23.12;100.00
7050;BME280;22263;52.260;10.548;2022-08-01T10:46:25;100560.94;;;23.37;100.00
7050;BME280;22263;52.260;10.548;2022-08-01T10:49:02;100567.75;;;22.87;100.00
7050;BME280;22263;52.260;10.548;2022-08-01T10:51:35;100566.84;;;22.68;100.00
7050;BME280;22263;52.260;10.548;2022-08-01T10:54:24;100566.19;;;22.86;100.00
7050;BME280;22263;52.260;10.548;2022-08-01T10:56:54;100561.38;;;22.95;100.00
7050;BME280;22263;52.260;10.548;2022-08-01T10:59:29;100561.22;;;23.70;100.00
7050;BME280;22263;52.260;10.548;2022-08-01T11:02:30;100555.50;;;24.28;100.00
7050;BME280;22263;52.260;10.548;2022-08-01T11:05:02;100555.75;;;24.75;100.00
7050;BME280;22263;52.260;10.548;2022-08-01T11:07:42;100557.34;;;24.67;100.00
7050;BME280;22263;52.260;10.548;2022-08-01T11:10:21;100561.28;;;24.88;100.00
7050;BME280;22263;52.260;10.548;2022-08-01T11:12:52;100548.13;;;25.60;100.00
7050;BME280;22263;52.260;10.548;2022-08-01T11:15:23;100560.94;;;24.95;100.00
7050;BME280;22263;52.260;10.548;2022-08-01T11:18:01;100569.88;;;23.84;100.00
7050;BME280;22263;52.260;10.548;2022-08-01T11:20:33;100560.91;;;23.28;100.00
7050;BME280;22263;52.260;10.548;2022-08-01T11:23:16;100573.34;;;23.09;100.00
7050;BME280;22263;52.260;10.548;2022-08-01T11:26:07;100568.75;;;22.71;100.00
7050;BME280;22263;52.260;10.548;2022-08-01T11:28:37;100573.97;;;22.60;100.00
7050;BME280;22263;52.260;10.548;2022-08-01T11:31:29;100569.97;;;23.23;100.00
7050;BME280;22263;52.260;10.548;2022-08-01T11:34:06;100572.06;;;23.89;100.00
7050;BME280;22263;52.260;10.548;2022-08-01T11:36:35;100570.63;;;23.67;100.00
7050;BME280;22263;52.260;10.548;2022-08-01T11:39:24;100572.41;;;23.82;100.00
7050;BME280;22263;52.260;10.548;2022-08-01T11:42:18;100566.19;;;24.33;100.00
7050;BME280;22263;52.260;10.548;2022-08-01T11:44:48;100566.34;;;24.48;100.00
7050;BME280;22263;52.260;10.548;2022-08-01T11:47:18;100568.97;;;24.79;100.00
7050;BME280;22263;52.260;10.548;2022-08-01T11:50:29;100573.75;;;24.36;100.00
7050;BME280;22263;52.260;10.548;2022-08-01T11:53:00;100577.28;;;24.09;100.00
7050;BME280;22263;52.260;10.548;2022-08-01T11:55:30;100585.19;;;24.32;100.00
7050;BME280;22263;52.260;10.548;2022-08-01T11:58:02;100587.00;;;23.90;100.00
7050;BME280;22263;52.260;10.548;2022-08-01T12:00:34;100594.97;;;23.73;100.00
7050;BME280;22263;52.260;10.548;2022-08-01T12:03:09;100591.38;;;23.82;100.00
7050;BME280;22263;52.260;10.548;2022-08-01T12:06:01;100585.59;;;24.13;100.00
7050;BME280;22263;52.260;10.548;2022-08-01T12:08:32;100585.81;;;24.55;100.00
7050;BME280;22263;52.260;10.548;2022-08-01T12:11:03;100583.84;;;25.48;100.00
7050;BME280;22263;52.260;10.548;2022-08-01T12:13:40;100571.94;;;27.07;100.00
7050;BME280;22263;52.260;10.548;2022-08-01T12:16:11;100565.97;;;27.05;100.00
7050;BME280;22263;52.260;10.548;2022-08-01T12:18:42;100581.34;;;26.31;100.00
7050;BME280;22263;52.260;10.548;2022-08-01T12:21:14;100578.31;;;27.02;98.84
7050;BME280;22263;52.260;10.548;2022-08-01T12:23:43;100578.28;;;27.31;97.60
7050;BME280;22263;52.260;10.548;2022-08-01T12:26:12;100573.59;;;26.70;100.00
7050;BME280;22263;52.260;10.548;2022-08-01T12:28:54;100577.13;;;26.26;100.00
7050;BME280;22263;52.260;10.548;2022-08-01T12:31:31;100572.59;;;25.72;100.00
7050;BME280;22263;52.260;10.548;2022-08-01T12:34:24;100600.06;;;25.06;100.00
7050;BME280;22263;52.260;10.548;2022-08-01T12:36:58;100583.28;;;25.35;100.00
7050;BME280;22263;52.260;10.548;2022-08-01T12:39:32;100588.28;;;24.80;100.00
7050;BME280;22263;52.260;10.548;2022-08-01T12:42:06;100591.91;;;24.90;100.00
7050;BME280;22263;52.260;10.548;2022-08-01T12:44:37;100578.31;;;25.87;100.00
7050;BME280;22263;52.260;10.548;2022-08-01T12:47:08;100572.78;;;26.55;100.00
7050;BME280;22263;52.260;10.548;2022-08-01T12:49:38;100580.47;;;26.16;100.00
7050;BME280;22263;52.260;10.548;2022-08-01T12:52:12;100583.84;;;26.05;100.00
7050;BME280;22263;52.260;10.548;2022-08-01T12:55:02;100579.22;;;25.69;100.00
7050;BME280;22263;52.260;10.548;2022-08-01T12:57:36;100588.13;;;25.44;100.00
7050;BME280;22263;52.260;10.548;2022-08-01T13:00:13;100580.97;;;25.90;100.00
7050;BME280;22263;52.260;10.548;2022-08-01T13:02:44;100593.28;;;26.11;100.00
7050;BME280;22263;52.260;10.548;2022-08-01T13:05:14;100595.66;;;25.47;100.00
7050;BME280;22263;52.260;10.548;2022-08-01T13:07:49;100600.25;;;25.44;100.00
7050;BME280;22263;52.260;10.548;2022-08-01T13:10:27;100589.41;;;25.34;100.00
7050;BME280;22263;52.260;10.548;2022-08-01T13:12:58;100581.56;;;25.29;100.00